Time;durP1;ratioP1;P1;durP2;ratioP2;P2;SDS_P1;SDS_P2;PMS_P1;PMS_P2;Temp;Humidity;BMP_temperature;BMP_pressure;BME280_temperature;BME280_humidity;BME280_pressure;Samples;Min_cycle;Max_cycle;Signal;HPM_P1;HPM_P2
2021/04/30 00:02:48;;;;;;;13.25;3.50;;;14.90;99.90;;;;;;5029824;28;20041;-75
2021/04/30 00:05:51;;;;;;;9.70;3.30;;;14.90;99.90;;;;;;5049703;28;20056;-74
2021/04/30 00:08:55;;;;;;;6.72;3.38;;;14.90;99.90;;;;;;5050833;28;20051;-74
2021/04/30 00:12:00;;;;;;;8.80;3.17;;;14.80;99.90;;;;;;5044398;28;20044;-73
2021/04/30 00:15:06;;;;;;;9.27;2.97;;;14.90;99.90;;;;;;5031606;28;20044;-73
2021/04/30 00:18:10;;;;;;;8.57;2.97;;;14.90;99.90;;;;;;5050702;28;20043;-75
2021/04/30 00:21:14;;;;;;;6.15;3.03;;;14.90;99.90;;;;;;5050641;28;20379;-74
2021/04/30 00:24:19;;;;;;;4.90;2.40;;;14.90;99.90;;;;;;5032904;28;20060;-72
2021/04/30 00:27:23;;;;;;;11.52;2.30;;;14.90;99.90;;;;;;5029928;28;20060;-72
2021/04/30 00:30:28;;;;;;;11.68;2.90;;;14.80;99.90;;;;;;5029220;28;20515;-74
2021/04/30 00:33:43;;;;;;;5.63;2.50;;;14.80;99.90;;;;;;5029746;28;20044;-74
2021/04/30 00:36:47;;;;;;;7.22;2.63;;;14.80;99.90;;;;;;5029607;28;20388;-75
2021/04/30 00:39:51;;;;;;;6.90;2.40;;;14.80;99.90;;;;;;5030447;28;20048;-73
2021/04/30 00:42:56;;;;;;;7.03;2.75;;;14.80;99.90;;;;;;5045196;28;20048;-74
2021/04/30 00:46:00;;;;;;;8.35;2.08;;;14.80;99.90;;;;;;5048697;28;20052;-74
2021/04/30 00:49:04;;;;;;;8.55;2.60;;;14.70;99.90;;;;;;5030660;28;20056;-75
2021/04/30 00:52:09;;;;;;;9.80;2.60;;;14.70;99.90;;;;;;5029367;28;20044;-74
2021/04/30 00:55:14;;;;;;;8.02;2.40;;;14.70;99.90;;;;;;5029388;28;20053;-74
2021/04/30 00:58:20;;;;;;;7.18;2.28;;;14.80;99.90;;;;;;5042564;28;20044;-73
2021/04/30 01:01:24;;;;;;;8.30;1.92;;;14.80;99.90;;;;;;5048562;28;20693;-73
2021/04/30 01:04:28;;;;;;;4.97;2.20;;;14.70;99.90;;;;;;5035750;28;20052;-73
2021/04/30 01:07:34;;;;;;;8.20;2.50;;;14.70;99.90;;;;;;5035967;28;20040;-75
2021/04/30 01:10:38;;;;;;;3.78;2.05;;;14.70;99.90;;;;;;5048084;28;20056;-75
2021/04/30 01:13:42;;;;;;;4.50;1.95;;;14.80;99.90;;;;;;5036207;28;20040;-74
2021/04/30 01:16:47;;;;;;;10.13;2.17;;;14.70;99.90;;;;;;5048398;28;20494;-74
2021/04/30 01:19:57;;;;;;;5.13;2.30;;;14.80;99.90;;;;;;5045920;28;20040;-72
2021/04/30 01:23:02;;;;;;;5.95;2.30;;;14.80;99.90;;;;;;5049194;28;20051;-74
2021/04/30 01:26:08;;;;;;;9.27;2.40;;;14.90;99.90;;;;;;5051976;28;20056;-73
2021/04/30 01:29:12;;;;;;;6.90;2.75;;;14.90;99.90;;;;;;5052856;28;20040;-73
2021/04/30 01:32:16;;;;;;;9.30;2.35;;;14.90;99.90;;;;;;5042099;28;20049;-74
2021/04/30 01:35:26;;;;;;;6.93;2.40;;;14.90;99.90;;;;;;5042119;28;20487;-72
2021/04/30 01:38:30;;;;;;;7.00;2.10;;;15.00;99.90;;;;;;5047534;28;20040;-74
2021/04/30 01:41:37;;;;;;;6.22;2.30;;;15.00;99.90;;;;;;5052783;28;20526;-73
2021/04/30 01:44:41;;;;;;;14.07;3.33;;;15.00;99.90;;;;;;5051539;28;20048;-74
2021/04/30 01:47:45;;;;;;;10.35;2.78;;;15.00;99.90;;;;;;5039767;28;20047;-73
2021/04/30 01:50:50;;;;;;;9.85;2.03;;;15.00;99.90;;;;;;5040145;28;20048;-73
2021/04/30 01:53:53;;;;;;;8.65;2.45;;;15.00;99.90;;;;;;5044077;28;20048;-72
2021/04/30 01:56:57;;;;;;;6.63;2.00;;;15.00;99.90;;;;;;5050431;28;20044;-73
2021/04/30 02:00:04;;;;;;;6.22;2.72;;;14.90;99.90;;;;;;5041309;28;20044;-74
2021/04/30 02:03:10;;;;;;;6.82;2.35;;;14.80;99.90;;;;;;5050973;28;20044;-74
2021/04/30 02:06:14;;;;;;;8.98;2.40;;;14.90;99.90;;;;;;5051958;28;20249;-74
2021/04/30 02:09:18;;;;;;;5.45;2.67;;;14.90;99.90;;;;;;5032625;28;20052;-72
2021/04/30 02:12:23;;;;;;;7.55;2.20;;;14.80;99.90;;;;;;5032575;28;20052;-73
2021/04/30 02:15:32;;;;;;;6.13;2.22;;;14.90;99.90;;;;;;5034347;28;20387;-74
2021/04/30 02:18:36;;;;;;;9.75;2.05;;;15.00;99.90;;;;;;5032016;28;20052;-74
2021/04/30 02:21:45;;;;;;;7.68;2.28;;;14.90;99.90;;;;;;5049284;28;20048;-74
2021/04/30 02:24:49;;;;;;;10.13;2.35;;;14.90;99.90;;;;;;5031182;28;20517;-74
2021/04/30 02:27:56;;;;;;;6.50;2.00;;;15.00;99.90;;;;;;5031999;28;20400;-74
2021/04/30 02:31:09;;;;;;;10.38;2.38;;;15.00;99.90;;;;;;5047004;28;20065;-75
2021/04/30 02:34:13;;;;;;;8.88;2.10;;;15.00;99.90;;;;;;5042769;28;20060;-74
2021/04/30 02:37:17;;;;;;;6.00;2.60;;;15.00;99.90;;;;;;5031067;28;20048;-74
2021/04/30 02:40:25;;;;;;;7.47;2.28;;;15.00;99.90;;;;;;5031864;28;20049;-75
2021/04/30 02:43:30;;;;;;;6.18;2.10;;;14.90;99.90;;;;;;5031649;28;20056;-73
2021/04/30 02:46:34;;;;;;;5.90;2.88;;;14.90;99.90;;;;;;5031207;28;20051;-74
2021/04/30 02:49:46;;;;;;;6.10;2.25;;;14.80;99.90;;;;;;5032794;28;20495;-74
2021/04/30 02:52:51;;;;;;;8.82;2.13;;;14.70;99.90;;;;;;5047056;28;20048;-74
2021/04/30 02:55:55;;;;;;;7.22;2.10;;;14.70;99.90;;;;;;5051319;28;20434;-74
2021/04/30 02:59:01;;;;;;;5.88;2.10;;;14.80;99.90;;;;;;5051330;28;20044;-74
2021/04/30 03:02:06;;;;;;;6.35;1.90;;;14.90;99.90;;;;;;5033670;28;20048;-73
2021/04/30 03:05:10;;;;;;;9.75;3.08;;;14.90;99.90;;;;;;5030934;28;20052;-74
2021/04/30 03:08:15;;;;;;;9.15;2.38;;;14.90;99.90;;;;;;5032003;28;20060;-73
2021/04/30 03:11:20;;;;;;;4.97;1.88;;;14.90;99.90;;;;;;5029459;28;20052;-74
2021/04/30 03:14:24;;;;;;;8.20;2.20;;;15.00;99.90;;;;;;5030536;28;20052;-74
2021/04/30 03:17:30;;;;;;;14.60;2.95;;;15.00;99.90;;;;;;5030840;28;20040;-74
2021/04/30 03:20:34;;;;;;;5.50;2.13;;;14.90;99.90;;;;;;5030505;28;20032;-74
2021/04/30 03:23:38;;;;;;;5.28;2.20;;;14.90;99.90;;;;;;5030982;28;20048;-73
2021/04/30 03:26:42;;;;;;;7.55;2.30;;;14.80;99.90;;;;;;5030240;28;20045;-74
2021/04/30 03:29:46;;;;;;;6.65;3.00;;;14.70;99.90;;;;;;5049479;28;20705;-74
2021/04/30 03:32:51;;;;;;;12.48;2.55;;;14.60;99.90;;;;;;5050293;28;20052;-74
2021/04/30 03:35:55;;;;;;;8.70;2.38;;;14.60;99.90;;;;;;5050233;28;20040;-74
2021/04/30 03:39:02;;;;;;;4.75;2.22;;;14.60;99.90;;;;;;5050840;28;20043;-74
2021/04/30 03:42:06;;;;;;;5.93;2.33;;;14.50;99.90;;;;;;5050293;28;20487;-74
2021/04/30 03:45:12;;;;;;;7.30;2.63;;;14.30;99.90;;;;;;5049549;28;20052;-74
2021/04/30 03:48:17;;;;;;;10.95;2.80;;;14.20;99.90;;;;;;5050968;28;20052;-74
2021/04/30 03:51:30;;;;;;;6.53;3.50;;;14.10;99.90;;;;;;5050141;28;20048;-74
2021/04/30 03:54:34;;;;;;;10.38;3.50;;;13.90;99.90;;;;;;5042755;28;20044;-73
2021/04/30 03:57:38;;;;;;;11.88;3.40;;;13.60;99.90;;;;;;5029815;28;20044;-73
2021/04/30 04:00:42;;;;;;;10.45;3.90;;;13.40;99.90;;;;;;5029587;28;20503;-73
2021/04/30 04:03:46;;;;;;;5.97;3.67;;;13.50;99.90;;;;;;5040808;28;20047;-74
2021/04/30 04:06:50;;;;;;;8.93;4.15;;;13.40;99.90;;;;;;5050129;28;20577;-74
2021/04/30 04:09:54;;;;;;;15.07;5.30;;;13.40;99.90;;;;;;5050279;28;20052;-74
2021/04/30 04:12:58;;;;;;;10.23;4.55;;;13.40;99.90;;;;;;5049617;28;20040;-74
2021/04/30 04:16:03;;;;;;;11.27;4.68;;;13.40;99.90;;;;;;5038894;28;20045;-74
2021/04/30 04:19:09;;;;;;;10.45;4.30;;;13.20;99.90;;;;;;5030440;28;20044;-74
2021/04/30 04:22:13;;;;;;;7.75;4.35;;;13.10;99.90;;;;;;5029989;28;20064;-74
2021/04/30 04:25:18;;;;;;;12.65;5.20;;;13.00;99.90;;;;;;5029232;28;20047;-74
2021/04/30 04:28:22;;;;;;;10.25;5.28;;;12.90;99.90;;;;;;5030671;28;20056;-74
2021/04/30 04:31:26;;;;;;;11.02;5.55;;;12.90;99.90;;;;;;5043386;28;20043;-75
2021/04/30 04:34:31;;;;;;;12.40;5.70;;;12.90;99.90;;;;;;5045282;28;20040;-74
2021/04/30 04:37:37;;;;;;;12.18;5.25;;;12.80;99.90;;;;;;5029109;28;20060;-75
2021/04/30 04:40:42;;;;;;;17.35;6.22;;;12.70;99.90;;;;;;5047756;28;20044;-74
2021/04/30 04:43:47;;;;;;;17.30;6.43;;;12.70;99.90;;;;;;5049503;28;20048;-74
2021/04/30 04:46:51;;;;;;;12.35;6.38;;;12.70;99.90;;;;;;5049502;28;20048;-72
2021/04/30 04:49:56;;;;;;;12.70;6.28;;;12.60;99.90;;;;;;5041885;28;20388;-74
2021/04/30 04:53:01;;;;;;;18.65;8.40;;;12.60;99.90;;;;;;5030277;28;20494;-73
2021/04/30 04:56:05;;;;;;;14.55;7.05;;;12.50;99.90;;;;;;5029811;28;20086;-74
2021/04/30 04:59:10;;;;;;;16.17;8.50;;;12.40;99.90;;;;;;5032422;28;20045;-74
2021/04/30 05:02:14;;;;;;;19.77;8.75;;;12.30;99.90;;;;;;5039606;28;20040;-74
2021/04/30 05:05:18;;;;;;;14.98;9.15;;;12.30;99.90;;;;;;5035014;28;20056;-74
2021/04/30 05:08:23;;;;;;;13.98;8.98;;;12.30;99.90;;;;;;5033838;28;20052;-71
2021/04/30 05:11:27;;;;;;;11.77;7.57;;;12.30;99.90;;;;;;5033364;28;20060;-74
2021/04/30 05:14:31;;;;;;;17.00;7.18;;;12.30;99.90;;;;;;5044788;28;20032;-74
2021/04/30 05:17:36;;;;;;;24.02;7.85;;;12.30;99.90;;;;;;5034114;28;20053;-74
2021/04/30 05:20:40;;;;;;;15.77;7.88;;;12.30;99.90;;;;;;5034754;28;20036;-73
2021/04/30 05:23:46;;;;;;;13.63;7.47;;;12.50;99.90;;;;;;5044874;28;20594;-74
2021/04/30 05:26:50;;;;;;;11.75;6.72;;;12.60;99.90;;;;;;5032589;28;20527;-74
2021/04/30 05:29:54;;;;;;;13.27;6.60;;;12.70;99.90;;;;;;5037037;28;20068;-74
2021/04/30 05:32:59;;;;;;;12.80;6.53;;;12.70;99.90;;;;;;5032206;28;20044;-74
2021/04/30 05:36:03;;;;;;;21.25;7.57;;;12.70;99.90;;;;;;5046174;28;20379;-74
2021/04/30 05:39:07;;;;;;;16.88;6.43;;;12.70;99.90;;;;;;5047495;28;20060;-74
2021/04/30 05:42:11;;;;;;;12.90;6.03;;;12.80;99.90;;;;;;5051196;28;20064;-74
2021/04/30 05:45:16;;;;;;;12.48;6.25;;;13.00;99.90;;;;;;5041743;28;20076;-74
2021/04/30 05:48:20;;;;;;;20.20;9.32;;;13.20;99.90;;;;;;5036766;28;20503;-74
2021/04/30 05:51:24;;;;;;;14.57;7.78;;;13.10;99.90;;;;;;5034520;28;20056;-75
2021/04/30 05:54:30;;;;;;;18.95;7.25;;;13.30;99.90;;;;;;5050095;28;20040;-74
2021/04/30 05:57:34;;;;;;;17.73;9.52;;;13.60;99.90;;;;;;5030545;28;20044;-74
2021/04/30 06:00:38;;;;;;;16.05;7.80;;;14.00;99.90;;;;;;5038339;28;20376;-74
2021/04/30 06:03:42;;;;;;;10.18;6.15;;;14.20;99.90;;;;;;5035249;28;20068;-74
2021/04/30 06:06:50;;;;;;;13.07;5.60;;;13.80;99.90;;;;;;5037421;28;20047;-74
2021/04/30 06:09:54;;;;;;;17.17;6.18;;;13.90;99.90;;;;;;5039531;28;20060;-74
2021/04/30 06:13:06;;;;;;;12.00;6.28;;;14.00;99.90;;;;;;5038729;28;20040;-75
2021/04/30 06:16:10;;;;;;;25.98;7.05;;;14.50;99.90;;;;;;5035536;28;20044;-74
2021/04/30 06:19:14;;;;;;;14.18;5.95;;;14.60;99.90;;;;;;5038114;28;20032;-73
2021/04/30 06:22:18;;;;;;;10.13;5.93;;;14.70;99.90;;;;;;5041352;28;20116;-74
2021/04/30 06:25:22;;;;;;;9.15;4.75;;;15.00;99.90;;;;;;5036828;28;20049;-73
2021/04/30 06:28:27;;;;;;;9.82;5.50;;;15.20;99.90;;;;;;5035243;28;20507;-73
2021/04/30 06:31:32;;;;;;;12.52;5.50;;;15.00;99.90;;;;;;5040244;28;20045;-74
2021/04/30 06:34:37;;;;;;;13.57;5.13;;;15.10;99.90;;;;;;5041536;28;20491;-73
2021/04/30 06:37:41;;;;;;;12.95;6.10;;;15.40;99.90;;;;;;5041435;28;20052;-74
2021/04/30 06:40:47;;;;;;;11.63;4.75;;;15.50;99.90;;;;;;5036874;28;20036;-73
2021/04/30 06:43:52;;;;;;;10.60;4.65;;;16.00;99.90;;;;;;5046742;28;20051;-74
2021/04/30 06:46:57;;;;;;;13.82;5.20;;;16.10;99.90;;;;;;5050437;28;20052;-74
2021/04/30 06:50:01;;;;;;;9.45;4.15;;;16.60;99.90;;;;;;5049923;28;20055;-74
2021/04/30 06:53:05;;;;;;;13.77;4.40;;;17.90;99.90;;;;;;5049926;28;20052;-74
2021/04/30 06:56:10;;;;;;;8.85;3.75;;;18.40;99.90;;;;;;5048716;28;20052;-73
2021/04/30 06:59:15;;;;;;;7.63;4.05;;;18.80;99.90;;;;;;5033658;28;20074;-74
2021/04/30 07:02:20;;;;;;;9.35;4.05;;;17.80;99.90;;;;;;5030698;28;20105;-74
2021/04/30 07:05:25;;;;;;;8.48;3.75;;;18.70;99.90;;;;;;5029594;28;20048;-73
2021/04/30 07:08:30;;;;;;;7.80;3.20;;;19.50;99.90;;;;;;5036082;28;20048;-73
2021/04/30 07:11:34;;;;;;;5.47;2.88;;;20.70;99.90;;;;;;5036671;28;20389;-73
2021/04/30 07:14:38;;;;;;;5.65;2.92;;;20.40;99.90;;;;;;5050244;28;20048;-75
2021/04/30 07:17:44;;;;;;;7.05;3.25;;;18.70;99.90;;;;;;5037044;28;20056;-74
2021/04/30 07:20:49;;;;;;;7.47;2.67;;;19.50;99.90;;;;;;5039296;28;20044;-73
2021/04/30 07:23:53;;;;;;;8.90;3.10;;;21.00;99.90;;;;;;5030025;28;20373;-71
2021/04/30 07:26:57;;;;;;;3.42;2.17;;;21.10;99.90;;;;;;5035279;28;20056;-73
2021/04/30 07:30:01;;;;;;;6.03;2.50;;;21.80;99.90;;;;;;5041269;28;20050;-72
2021/04/30 07:33:06;;;;;;;8.88;2.70;;;22.40;99.90;;;;;;5039437;28;20041;-74
2021/04/30 07:36:15;;;;;;;7.88;2.13;;;23.00;99.90;;;;;;5045341;28;20507;-73
2021/04/30 07:39:20;;;;;;;9.32;2.70;;;23.50;99.90;;;;;;5038842;28;20051;-73
2021/04/30 07:42:24;;;;;;;9.02;2.70;;;23.80;99.90;;;;;;5048750;28;20057;-74
2021/04/30 07:45:28;;;;;;;8.40;2.22;;;23.90;99.90;;;;;;5040936;28;20047;-74
2021/04/30 07:48:33;;;;;;;12.18;2.50;;;22.50;99.90;;;;;;5044016;28;20063;-74
2021/04/30 07:51:39;;;;;;;5.30;2.03;;;23.30;99.90;;;;;;5042211;28;20044;-76
2021/04/30 07:54:43;;;;;;;7.07;1.80;;;23.10;99.90;;;;;;5032706;28;20045;-73
2021/04/30 07:57:48;;;;;;;5.22;1.58;;;23.60;99.90;;;;;;5030110;28;20053;-74
2021/04/30 08:00:55;;;;;;;9.15;2.08;;;24.30;99.90;;;;;;5046452;28;20041;-74
2021/04/30 08:04:03;;;;;;;8.80;2.33;;;23.60;99.90;;;;;;5048461;28;20081;-74
2021/04/30 08:07:07;;;;;;;6.82;2.40;;;23.10;99.90;;;;;;5047379;28;20048;-73
2021/04/30 08:10:11;;;;;;;10.77;3.03;;;22.00;99.90;;;;;;5043033;28;20503;-75
2021/04/30 08:13:16;;;;;;;11.77;2.33;;;21.00;99.90;;;;;;5030928;28;20052;-73
2021/04/30 08:16:20;;;;;;;6.68;2.15;;;22.10;99.90;;;;;;5034940;28;20056;-73
2021/04/30 08:19:28;;;;;;;6.78;2.10;;;24.70;99.90;;;;;;5048726;28;20064;-74
2021/04/30 08:22:32;;;;;;;7.32;2.03;;;26.50;99.90;;;;;;5041853;28;20056;-73
2021/04/30 08:25:37;;;;;;;5.55;1.73;;;23.60;99.90;;;;;;5048605;28;20051;-72
2021/04/30 08:28:41;;;;;;;8.57;1.80;;;23.50;99.90;;;;;;5049707;28;20068;-74
2021/04/30 08:31:45;;;;;;;7.68;2.10;;;26.10;99.90;;;;;;5046186;28;20040;-72
2021/04/30 08:34:49;;;;;;;6.78;1.75;;;26.50;99.90;;;;;;5045082;28;20402;-73
2021/04/30 08:37:53;;;;;;;4.55;1.85;;;26.60;99.90;;;;;;5044346;28;20407;-73
2021/04/30 08:40:59;;;;;;;6.13;1.45;;;29.00;98.60;;;;;;5040920;28;20135;-73
2021/04/30 08:44:04;;;;;;;4.55;2.10;;;25.60;99.00;;;;;;5035764;28;20044;-73
2021/04/30 08:47:09;;;;;;;10.02;1.58;;;26.10;99.90;;;;;;5028794;28;20068;-73
2021/04/30 08:50:13;;;;;;;4.47;1.25;;;28.00;97.70;;;;;;5045200;28;20059;-73
2021/04/30 08:53:18;;;;;;;5.45;1.42;;;29.70;95.40;;;;;;5029002;28;20448;-71
2021/04/30 08:56:23;;;;;;;8.02;1.58;;;23.80;99.90;;;;;;5028482;28;20037;-74
2021/04/30 08:59:28;;;;;;;6.07;1.67;;;22.80;99.90;;;;;;5037155;28;20045;-74
2021/04/30 09:02:35;;;;;;;4.25;1.48;;;22.90;99.90;;;;;;5047794;28;20040;-74
2021/04/30 09:05:46;;;;;;;3.90;1.35;;;23.20;99.90;;;;;;5027967;28;20051;-74
2021/04/30 09:08:50;;;;;;;14.32;2.13;;;23.50;99.90;;;;;;5031378;28;20048;-73
2021/04/30 09:11:57;;;;;;;4.63;1.30;;;23.80;99.90;;;;;;5030283;28;20109;-74
2021/04/30 09:15:03;;;;;;;6.30;1.77;;;24.70;99.90;;;;;;5041891;28;20047;-74
2021/04/30 09:18:33;;;;;;;7.85;1.92;;;22.60;99.90;;;;;;5037124;28;20040;-73
2021/04/30 09:22:03;;;;;;;7.57;1.63;;;21.80;99.90;;;;;;5034533;28;20056;-72
2021/04/30 09:25:13;;;;;;;4.65;1.83;;;23.40;99.90;;;;;;5037387;28;20040;-74
2021/04/30 09:28:17;;;;;;;5.65;1.45;;;24.80;99.90;;;;;;5045950;28;20055;-71
2021/04/30 09:31:44;;;;;;;5.95;1.60;;;23.70;99.90;;;;;;5031254;28;20128;-74
2021/04/30 09:34:55;;;;;;;6.47;1.50;;;23.40;99.90;;;;;;5038315;28;20385;-74
2021/04/30 09:37:59;;;;;;;5.40;1.27;;;25.80;99.80;;;;;;5043837;28;20112;-72
2021/04/30 09:41:13;;;;;;;4.60;1.23;;;27.80;97.80;;;;;;5048655;28;20044;-73
2021/04/30 09:44:18;;;;;;;3.88;1.38;;;25.40;99.40;;;;;;5047770;28;20055;-73
2021/04/30 09:47:30;;;;;;;6.15;1.33;;;23.90;99.90;;;;;;5051986;28;20052;-73
2021/04/30 09:50:36;;;;;;;6.78;1.48;;;25.90;99.70;;;;;;5034460;28;20066;-72
2021/04/30 09:53:41;;;;;;;7.10;1.77;;;24.90;99.30;;;;;;5037008;28;20384;-73
2021/04/30 09:57:06;;;;;;;6.22;1.90;;;23.50;99.90;;;;;;5049555;28;20052;-74
2021/04/30 10:00:14;;;;;;;7.28;1.50;;;23.50;99.90;;;;;;5035243;28;20049;-74
2021/04/30 10:03:25;;;;;;;6.72;1.95;;;23.30;99.90;;;;;;5051382;28;20411;-73
2021/04/30 10:06:31;;;;;;;5.45;1.60;;;24.70;99.90;;;;;;5050342;28;20052;-73
2021/04/30 10:09:36;;;;;;;13.75;1.70;;;28.20;98.50;;;;;;5052136;28;20383;-73
2021/04/30 10:12:42;;;;;;;6.43;1.63;;;28.80;97.50;;;;;;5034764;28;20487;-72
2021/04/30 10:15:47;;;;;;;6.63;1.50;;;27.40;95.80;;;;;;5039963;28;20037;-73
2021/04/30 10:18:52;;;;;;;7.78;2.15;;;26.30;97.60;;;;;;5032071;28;20052;-73
2021/04/30 10:21:59;;;;;;;6.65;1.73;;;23.70;98.50;;;;;;5032939;28;20040;-73
2021/04/30 10:25:07;;;;;;;3.35;1.50;;;22.60;99.90;;;;;;5031476;28;20068;-72
2021/04/30 10:28:17;;;;;;;10.43;2.40;;;23.50;99.90;;;;;;5032012;28;20044;-73
2021/04/30 10:31:31;;;;;;;4.63;1.50;;;24.00;99.90;;;;;;5034325;28;20042;-73
2021/04/30 10:34:44;;;;;;;7.82;1.92;;;24.20;99.90;;;;;;5031102;28;20033;-73
2021/04/30 10:37:49;;;;;;;5.13;1.75;;;24.30;99.90;;;;;;5031120;28;20050;-73
2021/04/30 10:40:59;;;;;;;4.30;1.67;;;24.20;99.90;;;;;;5032401;28;20376;-72
2021/04/30 10:44:23;;;;;;;6.53;1.80;;;24.30;99.90;;;;;;5031505;28;20040;-72
2021/04/30 10:47:28;;;;;;;4.55;1.75;;;23.40;99.90;;;;;;5029255;28;20049;-72
2021/04/30 10:50:34;;;;;;;5.60;1.95;;;23.30;99.90;;;;;;5031926;28;20043;-73
2021/04/30 10:53:41;;;;;;;8.18;2.60;;;23.60;99.90;;;;;;5032190;28;20510;-73
2021/04/30 10:56:58;;;;;;;7.68;2.00;;;23.00;99.90;;;;;;5045620;28;20072;-72
2021/04/30 11:00:07;;;;;;;4.70;1.65;;;23.00;99.90;;;;;;5036311;28;20048;-72
2021/04/30 11:03:20;;;;;;;9.02;1.88;;;23.10;99.90;;;;;;5028027;28;20040;-73
2021/04/30 11:06:25;;;;;;;10.35;2.20;;;21.90;99.90;;;;;;5030987;28;20044;-73
2021/04/30 11:09:35;;;;;;;4.88;1.60;;;21.70;99.90;;;;;;5034987;28;20040;-72
2021/04/30 11:13:04;;;;;;;10.57;1.90;;;22.30;99.90;;;;;;5030905;28;20037;-73
2021/04/30 11:16:09;;;;;;;9.90;1.60;;;24.60;99.90;;;;;;5030336;28;20044;-73
2021/04/30 11:19:30;;;;;;;13.85;2.85;;;27.50;98.30;;;;;;5030779;28;20052;-73
2021/04/30 11:22:34;;;;;;;9.52;2.22;;;28.00;96.90;;;;;;5034152;28;20048;-71
2021/04/30 11:26:00;;;;;;;9.38;2.03;;;27.40;96.50;;;;;;5050146;28;20064;-72
2021/04/30 11:29:05;;;;;;;7.13;1.80;;;27.30;97.40;;;;;;5043680;28;20060;-74
2021/04/30 11:32:24;;;;;;;8.88;1.48;;;27.20;96.90;;;;;;5034140;28;20048;-73
2021/04/30 11:35:29;;;;;;;8.52;1.95;;;25.70;97.70;;;;;;5024520;28;20045;-73
2021/04/30 11:38:39;;;;;;;7.90;1.75;;;24.20;99.50;;;;;;5032351;28;20836;-73
2021/04/30 11:41:45;;;;;;;6.10;1.70;;;25.00;98.80;;;;;;5031605;28;20041;-73
2021/04/30 11:44:50;;;;;;;11.98;2.35;;;24.90;98.10;;;;;;5028901;28;20048;-71
2021/04/30 11:47:58;;;;;;;5.10;1.90;;;25.40;99.00;;;;;;5043512;28;20511;-73
2021/04/30 11:51:03;;;;;;;6.22;1.98;;;25.60;99.40;;;;;;5046932;28;20047;-73
2021/04/30 11:54:07;;;;;;;3.63;1.50;;;24.60;98.20;;;;;;5043512;28;20491;-72
2021/04/30 11:57:13;;;;;;;5.60;1.48;;;25.40;98.60;;;;;;5031379;28;20049;-73
2021/04/30 12:00:29;;;;;;;5.82;1.70;;;24.80;98.50;;;;;;5043115;28;20402;-72
2021/04/30 12:04:01;;;;;;;8.00;2.08;;;24.30;99.40;;;;;;5041262;28;20044;-72
2021/04/30 12:07:06;;;;;;;7.22;2.17;;;24.70;99.00;;;;;;5036885;28;20040;-72
2021/04/30 12:10:26;;;;;;;7.70;1.33;;;26.00;98.10;;;;;;5039044;28;20390;-72
2021/04/30 12:13:31;;;;;;;7.85;1.77;;;26.80;97.60;;;;;;5036866;28;20044;-72
2021/04/30 12:16:37;;;;;;;7.93;2.53;;;26.20;97.80;;;;;;5037642;28;20051;-71
2021/04/30 12:19:53;;;;;;;9.75;3.15;;;24.40;99.20;;;;;;5049849;28;20040;-73
2021/04/30 12:23:09;;;;;;;8.70;3.65;;;24.20;99.90;;;;;;5047797;28;20040;-72
2021/04/30 12:26:14;;;;;;;5.80;1.67;;;24.40;99.10;;;;;;5046101;28;20048;-73
2021/04/30 12:29:17;;;;;;;5.70;1.38;;;24.60;99.70;;;;;;5043985;28;20067;-70
2021/04/30 12:32:26;;;;;;;9.75;3.72;;;25.30;98.20;;;;;;5044808;28;20530;-73
2021/04/30 12:35:33;;;;;;;10.05;5.82;;;24.80;99.00;;;;;;5041381;28;20040;-73
2021/04/30 12:38:39;;;;;;;5.13;1.92;;;24.70;99.70;;;;;;5032986;28;20056;-73
2021/04/30 12:41:49;;;;;;;7.13;1.58;;;24.80;99.20;;;;;;5040260;28;20056;-73
2021/04/30 12:44:59;;;;;;;6.00;2.17;;;24.80;98.90;;;;;;5049523;28;20633;-71
2021/04/30 12:48:03;;;;;;;7.55;1.70;;;24.20;99.60;;;;;;5049366;28;20044;-73
2021/04/30 12:51:10;;;;;;;24.65;11.38;;;24.10;99.60;;;;;;5051968;28;20044;-74
2021/04/30 12:54:14;;;;;;;17.38;9.20;;;24.20;99.80;;;;;;5032105;28;20713;-73
2021/04/30 12:57:18;;;;;;;20.35;10.27;;;23.90;99.80;;;;;;5028887;28;20507;-74
2021/04/30 13:00:22;;;;;;;8.80;3.08;;;24.40;99.90;;;;;;5034109;28;20044;-72
2021/04/30 13:03:45;;;;;;;7.57;2.42;;;23.30;99.40;;;;;;5037113;28;20056;-74
2021/04/30 13:06:51;;;;;;;8.98;1.50;;;24.10;99.90;;;;;;5035139;28;20048;-73
2021/04/30 13:09:55;;;;;;;62.80;38.42;;;24.60;99.40;;;;;;5038464;28;20099;-74
2021/04/30 13:13:04;;;;;;;33.63;20.50;;;23.10;99.90;;;;;;5045478;28;20556;-75
2021/04/30 13:16:09;;;;;;;12.05;2.63;;;23.80;99.90;;;;;;5047769;28;20040;-72
2021/04/30 13:19:15;;;;;;;13.23;7.13;;;24.30;99.30;;;;;;5038725;28;20502;-74
2021/04/30 13:22:27;;;;;;;10.85;3.97;;;24.60;99.40;;;;;;5043935;28;20060;-73
2021/04/30 13:25:43;;;;;;;7.95;2.13;;;23.90;99.90;;;;;;5040795;28;20040;-73
2021/04/30 13:28:47;;;;;;;8.05;2.10;;;23.90;99.50;;;;;;5041797;28;20029;-73
2021/04/30 13:32:10;;;;;;;8.23;1.80;;;24.10;99.40;;;;;;5039184;28;20534;-74
2021/04/30 13:35:18;;;;;;;26.02;10.30;;;23.90;99.90;;;;;;5050353;28;20399;-73
2021/04/30 13:38:26;;;;;;;16.30;6.90;;;23.70;99.90;;;;;;5046907;28;20036;-74
2021/04/30 13:41:36;;;;;;;9.40;2.45;;;23.50;99.90;;;;;;5051578;28;20040;-73
2021/04/30 13:44:50;;;;;;;5.28;1.80;;;23.50;99.90;;;;;;5047259;28;20044;-73
2021/04/30 13:47:56;;;;;;;6.72;3.10;;;23.70;99.90;;;;;;5035980;28;20048;-74
2021/04/30 13:51:00;;;;;;;10.55;2.70;;;24.20;99.90;;;;;;5032490;28;20068;-74
2021/04/30 13:54:06;;;;;;;123.30;67.72;;;24.90;99.40;;;;;;5044878;28;20060;-73
2021/04/30 13:57:12;;;;;;;14.50;8.70;;;24.60;99.80;;;;;;5034808;28;20044;-74
2021/04/30 14:00:18;;;;;;;62.75;35.38;;;23.80;99.90;;;;;;5047283;28;20040;-71
2021/04/30 14:03:23;;;;;;;7.57;2.00;;;24.00;99.90;;;;;;5047785;28;20072;-73
2021/04/30 14:06:27;;;;;;;7.38;2.13;;;24.10;99.90;;;;;;5042702;28;20072;-73
2021/04/30 14:09:31;;;;;;;14.65;2.50;;;24.20;99.90;;;;;;5050678;28;20044;-74
2021/04/30 14:12:36;;;;;;;9.57;2.67;;;24.10;99.90;;;;;;5051458;28;20044;-72
2021/04/30 14:15:41;;;;;;;7.57;2.47;;;23.90;99.90;;;;;;5044074;28;20052;-73
2021/04/30 14:18:45;;;;;;;9.60;2.40;;;23.50;99.90;;;;;;5052236;28;20036;-73
2021/04/30 14:21:51;;;;;;;7.95;2.75;;;23.20;99.90;;;;;;5052382;28;20057;-75
2021/04/30 14:24:55;;;;;;;8.23;2.00;;;22.80;99.90;;;;;;5052839;28;20404;-70
2021/04/30 14:28:01;;;;;;;15.20;2.20;;;22.50;99.90;;;;;;5052459;28;20055;-74
2021/04/30 14:31:05;;;;;;;15.70;2.78;;;22.10;99.90;;;;;;5050836;28;20048;-74
2021/04/30 14:34:10;;;;;;;6.93;2.25;;;22.00;99.90;;;;;;5052593;28;20047;-74
2021/04/30 14:37:14;;;;;;;6.18;2.55;;;21.60;99.90;;;;;;5031870;28;20426;-74
2021/04/30 14:40:18;;;;;;;6.00;2.03;;;21.50;99.90;;;;;;5031294;28;20040;-73
2021/04/30 14:43:22;;;;;;;10.43;2.20;;;21.20;99.90;;;;;;5032338;28;20048;-71
2021/04/30 14:46:27;;;;;;;12.05;1.80;;;20.80;99.90;;;;;;5030960;28;20072;-73
2021/04/30 14:49:32;;;;;;;11.02;1.90;;;20.20;99.90;;;;;;5032106;28;20047;-74
2021/04/30 14:52:37;;;;;;;7.43;1.63;;;19.90;99.90;;;;;;5031798;28;20041;-73
2021/04/30 14:55:42;;;;;;;11.68;2.70;;;19.60;99.90;;;;;;5031604;28;20045;-75
2021/04/30 14:58:46;;;;;;;7.15;1.92;;;19.40;99.90;;;;;;5031491;28;20056;-69
2021/04/30 15:01:50;;;;;;;7.07;1.88;;;19.20;99.90;;;;;;5037493;28;20044;-71
2021/04/30 15:04:56;;;;;;;12.65;2.40;;;18.90;99.90;;;;;;5052316;28;20048;-71
2021/04/30 15:08:01;;;;;;;7.63;2.45;;;18.40;99.90;;;;;;5051469;28;20056;-69
2021/04/30 15:11:06;;;;;;;12.48;2.50;;;18.10;99.90;;;;;;5041996;28;20068;-70
2021/04/30 15:14:14;;;;;;;10.80;2.80;;;17.90;99.90;;;;;;5031565;28;20064;-71
2021/04/30 15:17:19;;;;;;;10.45;2.58;;;17.90;99.90;;;;;;5030875;28;20044;-70
2021/04/30 15:20:26;;;;;;;6.55;1.73;;;18.00;99.90;;;;;;5031140;28;20369;-71
2021/04/30 15:23:29;;;;;;;14.65;2.30;;;18.20;99.90;;;;;;5031676;28;20060;-72
2021/04/30 15:26:34;;;;;;;9.90;2.65;;;18.20;99.90;;;;;;5031604;28;20124;-73
2021/04/30 15:29:38;;;;;;;6.20;1.50;;;18.30;99.90;;;;;;5040196;28;20056;-73
2021/04/30 15:32:43;;;;;;;9.48;2.10;;;18.30;99.90;;;;;;5050855;28;20047;-74
2021/04/30 15:35:48;;;;;;;8.45;2.50;;;18.20;99.90;;;;;;5050601;28;20123;-72
2021/04/30 15:38:58;;;;;;;3.97;1.70;;;18.20;99.90;;;;;;5031840;28;20044;-71
2021/04/30 15:42:04;;;;;;;4.72;1.70;;;18.30;99.90;;;;;;5045244;28;20044;-72
2021/04/30 15:45:09;;;;;;;4.43;1.63;;;18.30;99.90;;;;;;5048460;28;20415;-74
2021/04/30 15:48:13;;;;;;;4.60;1.80;;;18.40;99.90;;;;;;5050487;28;20056;-73
2021/04/30 15:51:18;;;;;;;5.03;2.00;;;18.60;99.90;;;;;;5050924;28;20052;-73
2021/04/30 15:54:25;;;;;;;4.38;1.80;;;18.70;99.90;;;;;;5046205;28;20060;-73
2021/04/30 15:57:32;;;;;;;5.05;2.47;;;18.80;99.90;;;;;;5049093;28;20510;-73
2021/04/30 16:00:37;;;;;;;8.13;1.90;;;18.90;99.90;;;;;;5029671;28;20052;-73
2021/04/30 16:03:41;;;;;;;4.35;2.05;;;18.90;99.90;;;;;;5030545;28;20116;-73
2021/04/30 16:06:45;;;;;;;7.13;1.90;;;18.90;99.90;;;;;;5040944;28;20507;-73